createdAt,value
2017-02-08T00:00:35.056Z,0
2017-02-08T00:01:45.719Z,0
2017-02-08T00:02:56.410Z,0
2017-02-08T00:04:07.071Z,0
2017-02-08T00:05:17.735Z,0
2017-02-08T00:06:28.405Z,0
2017-02-08T00:07:39.068Z,0
2017-02-08T00:08:49.753Z,0
2017-02-08T00:10:00.412Z,0
2017-02-08T00:11:11.099Z,0
2017-02-08T00:12:21.767Z,0
2017-02-08T00:13:32.433Z,0
2017-02-08T00:14:43.094Z,0
2017-02-08T00:15:53.755Z,0
2017-02-08T00:17:04.417Z,0
2017-02-08T00:18:15.092Z,0
2017-02-08T00:19:25.395Z,0
2017-02-08T00:20:36.055Z,0
2017-02-08T00:21:46.716Z,0
2017-02-08T00:22:57.374Z,0
2017-02-08T00:24:08.037Z,0
2017-02-08T00:25:18.304Z,0
2017-02-08T00:26:28.965Z,0
2017-02-08T00:27:39.228Z,0
2017-02-08T00:28:49.885Z,0
2017-02-08T00:30:00.550Z,0
2017-02-08T00:31:11.240Z,0
2017-02-08T00:32:21.505Z,0
2017-02-08T00:33:32.168Z,0
2017-02-08T00:34:42.830Z,0
2017-02-08T00:35:53.497Z,0
2017-02-08T00:37:04.157Z,0
2017-02-08T00:38:14.421Z,0
2017-02-08T00:39:25.085Z,0
2017-02-08T00:40:35.749Z,0
2017-02-08T00:41:46.412Z,0
2017-02-08T00:42:57.071Z,0
2017-02-08T00:44:07.732Z,0
2017-02-08T00:45:17.997Z,0
2017-02-08T00:46:28.657Z,0
2017-02-08T00:47:39.320Z,0
2017-02-08T00:48:49.986Z,0
2017-02-08T00:50:00.651Z,0
2017-02-08T00:51:11.309Z,0
2017-02-08T00:52:21.574Z,0
2017-02-08T00:53:31.839Z,0
2017-02-08T00:54:42.498Z,0
2017-02-08T00:55:53.157Z,0
2017-02-08T00:57:03.821Z,0
2017-02-08T00:58:14.087Z,0
2017-02-08T00:59:24.754Z,0
2017-02-08T01:00:35.418Z,0
2017-02-08T01:01:46.081Z,0
2017-02-08T01:02:56.745Z,0
2017-02-08T01:04:07.411Z,0
2017-02-08T01:05:17.681Z,0
2017-02-08T01:06:28.347Z,0
2017-02-08T01:07:39.013Z,0
2017-02-08T01:08:49.675Z,0
2017-02-08T01:10:00.341Z,0
2017-02-08T01:11:11.001Z,0
2017-02-08T01:12:21.666Z,0
2017-02-08T01:13:32.327Z,0
2017-02-08T01:14:42.988Z,0
2017-02-08T01:15:53.648Z,0
2017-02-08T01:17:04.310Z,0
2017-02-08T01:18:14.973Z,0
2017-02-08T01:19:25.632Z,0
2017-02-08T01:20:36.295Z,0
2017-02-08T01:21:46.951Z,0
2017-02-08T01:22:57.219Z,0
2017-02-08T01:24:07.487Z,0
2017-02-08T01:25:17.746Z,0
2017-02-08T01:26:28.413Z,0
2017-02-08T01:27:39.077Z,0
2017-02-08T01:28:49.341Z,0
2017-02-08T01:30:00.003Z,0
2017-02-08T01:31:10.668Z,0
2017-02-08T01:32:21.331Z,0
2017-02-08T01:33:31.195Z,0
2017-02-08T01:34:41.857Z,0
2017-02-08T01:35:52.123Z,0
2017-02-08T01:37:02.785Z,0
2017-02-08T01:38:13.443Z,0
2017-02-08T01:39:23.705Z,0
2017-02-08T01:40:34.368Z,0
2017-02-08T01:41:45.030Z,0
2017-02-08T01:42:55.694Z,0
2017-02-08T01:44:06.356Z,0
2017-02-08T01:45:16.228Z,0
2017-02-08T01:46:26.492Z,0
2017-02-08T01:47:37.150Z,0
2017-02-08T01:48:47.812Z,0
2017-02-08T01:49:58.467Z,0
2017-02-08T01:51:09.127Z,0
2017-02-08T01:52:19.788Z,0
2017-02-08T01:53:30.059Z,0
2017-02-08T01:54:40.724Z,0
2017-02-08T01:55:51.385Z,0
2017-02-08T01:57:02.042Z,0
2017-02-08T01:58:12.308Z,0
2017-02-08T01:59:23.003Z,0
2017-02-08T02:00:33.668Z,0
2017-02-08T02:01:44.330Z,0
2017-02-08T02:02:54.994Z,0
2017-02-08T02:04:05.658Z,0
2017-02-08T02:05:15.920Z,0
2017-02-08T02:06:24.995Z,0
2017-02-08T02:07:35.659Z,0
2017-02-08T02:08:46.314Z,0
2017-02-08T02:09:56.966Z,0
2017-02-08T02:11:07.627Z,0
2017-02-08T02:12:17.890Z,0
2017-02-08T02:13:28.179Z,0
2017-02-08T02:14:38.844Z,0
2017-02-08T02:15:49.507Z,0
2017-02-08T02:17:00.164Z,0
2017-02-08T02:18:10.822Z,0
2017-02-08T02:19:21.481Z,0
2017-02-08T02:20:31.747Z,0
2017-02-08T02:21:42.413Z,0
2017-02-08T02:22:53.077Z,0
2017-02-08T02:24:03.741Z,0
2017-02-08T02:25:14.005Z,0
2017-02-08T02:26:24.269Z,0
2017-02-08T02:27:34.931Z,0
2017-02-08T02:28:45.591Z,0
2017-02-08T02:29:56.252Z,0
2017-02-08T02:31:06.926Z,0
2017-02-08T02:32:17.593Z,0
2017-02-08T02:33:27.863Z,0
2017-02-08T02:34:38.530Z,0
2017-02-08T02:35:49.194Z,0
2017-02-08T02:36:59.853Z,0
2017-02-08T02:38:10.516Z,0
2017-02-08T02:39:21.183Z,0
2017-02-08T02:40:31.803Z,0
2017-02-08T02:41:42.465Z,0
2017-02-08T02:42:52.727Z,0
2017-02-08T02:44:03.396Z,0
2017-02-08T02:45:14.056Z,0
2017-02-08T02:46:24.329Z,0
2017-02-08T02:47:34.996Z,0
2017-02-08T02:48:45.658Z,0
2017-02-08T02:49:56.319Z,0
2017-02-08T02:51:06.992Z,0
2017-02-08T02:52:17.654Z,0
2017-02-08T02:53:28.315Z,0
2017-02-08T02:54:38.981Z,0
2017-02-08T02:55:49.642Z,0
2017-02-08T02:57:00.304Z,0
2017-02-08T02:58:10.967Z,0
2017-02-08T02:59:21.627Z,0
2017-02-08T03:00:32.293Z,0
2017-02-08T03:01:42.998Z,0
2017-02-08T03:02:53.672Z,0
2017-02-08T03:04:04.339Z,0
2017-02-08T03:05:14.602Z,0
2017-02-08T03:06:25.269Z,0
2017-02-08T03:07:35.940Z,0
2017-02-08T03:08:46.610Z,0
2017-02-08T03:09:57.321Z,0
2017-02-08T03:11:07.588Z,0
2017-02-08T03:12:18.283Z,0
2017-02-08T03:13:28.987Z,0
2017-02-08T03:14:39.650Z,0
2017-02-08T03:15:50.315Z,0
2017-02-08T03:17:00.975Z,0
2017-02-08T03:18:11.245Z,0
2017-02-08T03:19:21.905Z,0
2017-02-08T03:20:32.570Z,0
2017-02-08T03:21:43.330Z,0
2017-02-08T03:22:53.986Z,0
2017-02-08T03:24:04.655Z,0
2017-02-08T03:25:14.528Z,0
2017-02-08T03:26:25.189Z,0
2017-02-08T03:27:35.452Z,0
2017-02-08T03:28:46.117Z,0
2017-02-08T03:29:56.777Z,0
2017-02-08T03:31:07.442Z,0
2017-02-08T03:32:17.704Z,0
2017-02-08T03:33:28.369Z,0
2017-02-08T03:34:39.037Z,0
2017-02-08T03:35:49.697Z,0
2017-02-08T03:37:00.363Z,0
2017-02-08T03:38:11.026Z,0
2017-02-08T03:39:21.686Z,0
2017-02-08T03:40:31.952Z,0
2017-02-08T03:41:42.616Z,0
2017-02-08T03:42:53.283Z,0
2017-02-08T03:44:03.947Z,0
2017-02-08T03:45:14.625Z,0
2017-02-08T03:46:25.290Z,0
2017-02-08T03:47:35.159Z,0
2017-02-08T03:48:45.823Z,0
2017-02-08T03:49:56.485Z,0
2017-02-08T03:51:07.153Z,0
2017-02-08T03:52:17.825Z,0
2017-02-08T03:53:28.487Z,0
2017-02-08T03:54:39.151Z,0
2017-02-08T03:55:49.414Z,0
2017-02-08T03:57:00.075Z,0
2017-02-08T03:58:10.342Z,0
2017-02-08T03:59:21.004Z,0
2017-02-08T04:00:31.661Z,0
2017-02-08T04:01:42.326Z,0
2017-02-08T04:02:52.992Z,0
2017-02-08T04:04:03.657Z,0
2017-02-08T04:05:14.321Z,0
2017-02-08T04:06:25.010Z,0
2017-02-08T04:07:35.281Z,0
2017-02-08T04:08:45.937Z,0
2017-02-08T04:09:56.199Z,0
2017-02-08T04:11:06.858Z,0
2017-02-08T04:12:17.520Z,0
2017-02-08T04:13:28.183Z,0
2017-02-08T04:14:38.849Z,0
2017-02-08T04:15:49.112Z,0
2017-02-08T04:16:59.771Z,0
2017-02-08T04:18:10.039Z,0
2017-02-08T04:19:20.328Z,0
2017-02-08T04:20:30.984Z,0
2017-02-08T04:21:41.638Z,0
2017-02-08T04:22:52.300Z,0
2017-02-08T04:24:02.960Z,0
2017-02-08T04:25:12.825Z,0
2017-02-08T04:26:23.494Z,0
2017-02-08T04:27:34.152Z,0
2017-02-08T04:28:44.812Z,0
2017-02-08T04:29:55.482Z,0
2017-02-08T04:31:06.143Z,0
2017-02-08T04:32:16.411Z,0
2017-02-08T04:33:27.076Z,0
2017-02-08T04:34:37.775Z,0
2017-02-08T04:35:48.438Z,0
2017-02-08T04:36:59.098Z,0
2017-02-08T04:38:09.378Z,0
2017-02-08T04:39:20.034Z,0
2017-02-08T04:40:30.691Z,0
2017-02-08T04:41:41.358Z,0
2017-02-08T04:42:52.019Z,0
2017-02-08T04:44:02.700Z,0
2017-02-08T04:45:12.967Z,0
2017-02-08T04:46:22.834Z,0
2017-02-08T04:47:33.490Z,0
2017-02-08T04:48:44.147Z,0
2017-02-08T04:49:54.416Z,0
2017-02-08T04:51:05.076Z,0
2017-02-08T04:52:15.746Z,0
2017-02-08T04:53:26.407Z,0
2017-02-08T04:54:37.070Z,0
2017-02-08T04:55:47.740Z,0
2017-02-08T04:56:58.399Z,0
2017-02-08T04:58:09.062Z,0
2017-02-08T04:59:19.723Z,0
2017-02-08T05:00:30.388Z,0
2017-02-08T05:01:40.655Z,0
2017-02-08T05:02:51.322Z,0
2017-02-08T05:04:01.985Z,0
2017-02-08T05:05:12.644Z,0
2017-02-08T05:06:22.910Z,0
2017-02-08T05:07:33.173Z,0
2017-02-08T05:08:43.436Z,0
2017-02-08T05:09:54.132Z,0
2017-02-08T05:11:04.791Z,0
2017-02-08T05:12:15.457Z,0
2017-02-08T05:13:25.732Z,0
2017-02-08T05:14:36.402Z,0
2017-02-08T05:15:47.064Z,0
2017-02-08T05:16:56.931Z,0
2017-02-08T05:18:07.599Z,0
2017-02-08T05:19:17.861Z,0
2017-02-08T05:20:28.534Z,0
2017-02-08T05:21:39.195Z,0
2017-02-08T05:22:49.855Z,0
2017-02-08T05:24:00.518Z,0
2017-02-08T05:25:11.175Z,0
2017-02-08T05:26:21.836Z,0
2017-02-08T05:27:32.496Z,0
2017-02-08T05:28:43.166Z,0
2017-02-08T05:29:53.830Z,0
2017-02-08T05:31:04.493Z,0
2017-02-08T05:32:14.758Z,0
2017-02-08T05:33:25.422Z,0
2017-02-08T05:34:36.079Z,0
2017-02-08T05:35:46.739Z,0
2017-02-08T05:36:57.003Z,0
2017-02-08T05:38:07.669Z,0
2017-02-08T05:39:17.938Z,0
2017-02-08T05:40:28.601Z,0
2017-02-08T05:41:39.261Z,0
2017-02-08T05:42:49.927Z,0
2017-02-08T05:44:00.588Z,0
2017-02-08T05:45:11.248Z,0
2017-02-08T05:46:21.908Z,0
2017-02-08T05:47:32.570Z,0
2017-02-08T05:48:43.235Z,0
2017-02-08T05:49:53.899Z,0
2017-02-08T05:51:04.563Z,0
2017-02-08T05:52:14.826Z,0
2017-02-08T05:53:25.483Z,0
2017-02-08T05:54:36.160Z,0
2017-02-08T05:55:46.822Z,0
2017-02-08T05:56:57.481Z,0
2017-02-08T05:58:07.749Z,0
2017-02-08T05:59:17.617Z,0
2017-02-08T06:00:28.326Z,0
2017-02-08T06:01:38.982Z,0
2017-02-08T06:02:49.637Z,0
2017-02-08T06:04:00.319Z,0
2017-02-08T06:05:10.582Z,0
2017-02-08T06:06:21.242Z,0
2017-02-08T06:07:31.906Z,0
2017-02-08T06:08:42.171Z,0
2017-02-08T06:09:52.438Z,0
2017-02-08T06:11:03.135Z,0
2017-02-08T06:12:13.400Z,0
2017-02-08T06:13:24.062Z,0
2017-02-08T06:14:34.732Z,0
2017-02-08T06:15:45.397Z,0
2017-02-08T06:16:56.059Z,0
2017-02-08T06:18:06.721Z,0
2017-02-08T06:19:17.391Z,0
2017-02-08T06:20:28.051Z,0
2017-02-08T06:21:38.771Z,0
2017-02-08T06:22:49.438Z,0
2017-02-08T06:24:00.097Z,0
2017-02-08T06:25:10.758Z,0
2017-02-08T06:26:21.419Z,0
2017-02-08T06:27:32.085Z,0
2017-02-08T06:28:42.747Z,0
2017-02-08T06:29:53.412Z,4
2017-02-08T06:31:04.078Z,4
2017-02-08T06:32:14.346Z,0
2017-02-08T06:33:25.012Z,4
2017-02-08T06:34:35.669Z,4
2017-02-08T06:35:46.324Z,0
2017-02-08T06:36:56.991Z,4
2017-02-08T06:38:07.663Z,4
2017-02-08T06:39:18.324Z,8
2017-02-08T06:40:28.984Z,8
2017-02-08T06:41:39.645Z,8
2017-02-08T06:42:50.312Z,8
2017-02-08T06:44:00.980Z,8
2017-02-08T06:45:11.643Z,12
2017-02-08T06:46:21.513Z,12
2017-02-08T06:47:32.179Z,16
2017-02-08T06:48:42.473Z,16
2017-02-08T06:49:52.737Z,20
2017-02-08T06:51:03.402Z,24
2017-02-08T06:52:13.667Z,28
2017-02-08T06:53:23.931Z,28
2017-02-08T06:54:34.192Z,36
2017-02-08T06:55:44.861Z,40
2017-02-08T06:56:55.127Z,44
2017-02-08T06:58:05.790Z,52
2017-02-08T06:59:16.456Z,56
2017-02-08T07:00:27.127Z,60
2017-02-08T07:01:37.792Z,72
2017-02-08T07:02:48.454Z,76
2017-02-08T07:03:59.121Z,84
2017-02-08T07:05:09.790Z,96
2017-02-08T07:06:20.453Z,108
2017-02-08T07:07:31.119Z,120
2017-02-08T07:08:41.385Z,128
2017-02-08T07:09:52.046Z,148
2017-02-08T07:11:02.710Z,160
2017-02-08T07:12:12.970Z,176
2017-02-08T07:13:23.244Z,200
2017-02-08T07:14:33.909Z,216
2017-02-08T07:15:44.591Z,236
2017-02-08T07:16:55.263Z,252
2017-02-08T07:18:05.921Z,272
2017-02-08T07:19:16.590Z,292
2017-02-08T07:20:26.861Z,312
2017-02-08T07:21:37.522Z,332
2017-02-08T07:22:48.190Z,352
2017-02-08T07:23:58.855Z,372
2017-02-08T07:25:09.522Z,396
2017-02-08T07:26:20.214Z,416
2017-02-08T07:27:30.889Z,440
2017-02-08T07:28:41.459Z,460
2017-02-08T07:29:51.723Z,484
2017-02-08T07:31:02.387Z,508
2017-02-08T07:32:12.694Z,536
2017-02-08T07:33:22.960Z,560
2017-02-08T07:34:33.623Z,588
2017-02-08T07:35:43.888Z,620
2017-02-08T07:36:54.549Z,656
2017-02-08T07:38:05.224Z,696
2017-02-08T07:39:16.914Z,736
2017-02-08T07:40:27.672Z,768
2017-02-08T07:41:38.330Z,800
2017-02-08T07:42:48.995Z,828
2017-02-08T07:43:59.653Z,844
2017-02-08T07:45:09.919Z,864
2017-02-08T07:46:20.185Z,896
2017-02-08T07:47:30.880Z,932
2017-02-08T07:48:41.544Z,964
2017-02-08T07:49:52.208Z,1000
2017-02-08T07:51:02.869Z,1044
2017-02-08T07:52:12.736Z,1088
2017-02-08T07:53:23.403Z,1116
2017-02-08T07:54:34.061Z,1148
2017-02-08T07:55:44.725Z,1184
2017-02-08T07:56:54.995Z,1216
2017-02-08T07:58:05.650Z,1248
2017-02-08T07:59:15.919Z,1264
2017-02-08T08:00:25.789Z,1284
2017-02-08T08:01:36.451Z,1324
2017-02-08T08:02:47.112Z,1360
2017-02-08T08:03:57.780Z,1408
2017-02-08T08:05:08.449Z,1432
2017-02-08T08:06:19.112Z,1468
2017-02-08T08:07:29.808Z,1520
2017-02-08T08:08:41.038Z,1580
2017-02-08T08:09:51.697Z,1612
2017-02-08T08:11:02.364Z,1660
2017-02-08T08:12:12.234Z,1720
2017-02-08T08:13:22.897Z,1800
2017-02-08T08:14:33.560Z,1916
2017-02-08T08:15:43.850Z,1964
2017-02-08T08:16:54.508Z,2004
2017-02-08T08:18:05.174Z,2016
2017-02-08T08:19:15.834Z,2028
2017-02-08T08:20:26.498Z,2096
2017-02-08T08:21:37.163Z,2188
2017-02-08T08:22:47.427Z,2216
2017-02-08T08:23:58.122Z,2280
2017-02-08T08:25:08.781Z,2356
2017-02-08T08:26:19.448Z,2424
2017-02-08T08:27:30.108Z,2452
2017-02-08T08:28:40.775Z,2512
2017-02-08T08:29:51.434Z,2548
2017-02-08T08:31:01.711Z,2656
2017-02-08T08:32:12.399Z,2640
2017-02-08T08:33:23.064Z,2644
2017-02-08T08:34:33.725Z,2752
2017-02-08T08:35:44.387Z,2844
2017-02-08T08:36:55.046Z,2888
2017-02-08T08:38:05.711Z,2964
2017-02-08T08:39:15.977Z,2920
2017-02-08T08:40:26.241Z,2940
2017-02-08T08:41:36.899Z,2972
2017-02-08T08:42:47.561Z,3108
2017-02-08T08:43:58.219Z,3200
2017-02-08T08:45:08.484Z,3200
2017-02-08T08:46:19.140Z,3192
2017-02-08T08:47:29.413Z,3200
2017-02-08T08:48:40.075Z,3224
2017-02-08T08:49:50.337Z,3272
2017-02-08T08:51:01.002Z,3344
2017-02-08T08:52:11.680Z,3316
2017-02-08T08:53:22.340Z,3512
2017-02-08T08:54:33.002Z,3552
2017-02-08T08:55:43.667Z,3668
2017-02-08T08:56:53.932Z,3676
2017-02-08T08:58:04.600Z,3700
2017-02-08T08:59:15.261Z,3788
2017-02-08T09:00:25.928Z,3888
2017-02-08T09:01:36.590Z,3948
2017-02-08T09:02:47.256Z,4044
2017-02-08T09:03:57.918Z,4100
2017-02-08T09:05:08.587Z,4164
2017-02-08T09:06:19.252Z,4252
2017-02-08T09:07:29.517Z,4348
2017-02-08T09:08:40.184Z,4468
2017-02-08T09:09:50.454Z,4488
2017-02-08T09:11:01.114Z,4536
2017-02-08T09:12:11.775Z,4632
2017-02-08T09:13:22.439Z,4688
2017-02-08T09:14:33.108Z,4708
2017-02-08T09:15:43.775Z,4696
2017-02-08T09:16:54.438Z,4848
2017-02-08T09:18:05.108Z,5020
2017-02-08T09:19:15.779Z,5132
2017-02-08T09:20:25.653Z,5164
2017-02-08T09:21:36.312Z,5336
2017-02-08T09:22:46.970Z,5416
2017-02-08T09:23:57.631Z,5452
2017-02-08T09:25:08.301Z,5500
2017-02-08T09:26:18.957Z,5552
2017-02-08T09:27:29.625Z,5604
2017-02-08T09:28:40.326Z,5620
2017-02-08T09:29:50.988Z,5496
2017-02-08T09:31:01.655Z,5448
2017-02-08T09:32:12.315Z,5408
2017-02-08T09:33:23.025Z,5516
2017-02-08T09:34:33.292Z,5544
2017-02-08T09:35:43.564Z,5584
2017-02-08T09:36:54.231Z,5620
2017-02-08T09:38:04.895Z,5648
2017-02-08T09:39:15.568Z,5784
2017-02-08T09:40:25.435Z,5740
2017-02-08T09:41:36.091Z,5864
2017-02-08T09:42:46.756Z,5940
2017-02-08T09:43:57.456Z,6124
2017-02-08T09:45:08.119Z,6280
2017-02-08T09:46:18.785Z,6332
2017-02-08T09:47:29.055Z,6272
2017-02-08T09:48:39.725Z,6212
2017-02-08T09:49:50.384Z,6180
2017-02-08T09:51:01.046Z,6120
2017-02-08T09:52:11.711Z,6140
2017-02-08T09:53:21.983Z,6040
2017-02-08T09:54:32.650Z,5916
2017-02-08T09:55:43.314Z,5756
2017-02-08T09:56:53.970Z,6024
2017-02-08T09:58:04.635Z,6192
2017-02-08T09:59:14.906Z,6056
2017-02-08T10:00:24.775Z,5980
2017-02-08T10:01:35.440Z,5836
2017-02-08T10:02:45.704Z,5828
2017-02-08T10:03:56.400Z,5996
2017-02-08T10:05:06.671Z,6120
2017-02-08T10:06:17.338Z,6092
2017-02-08T10:07:28.009Z,6204
2017-02-08T10:08:38.677Z,6440
2017-02-08T10:09:49.343Z,6500
2017-02-08T10:11:00.011Z,6444
2017-02-08T10:12:10.682Z,6412
2017-02-08T10:13:21.346Z,6292
2017-02-08T10:14:32.015Z,6428
2017-02-08T10:15:42.683Z,6628
2017-02-08T10:16:52.949Z,6728
2017-02-08T10:18:03.615Z,6648
2017-02-08T10:19:14.278Z,6744
2017-02-08T10:20:24.546Z,6884
2017-02-08T10:21:35.213Z,6972
2017-02-08T10:22:45.880Z,6896
2017-02-08T10:23:56.562Z,7140
2017-02-08T10:25:07.230Z,7348
2017-02-08T10:26:17.901Z,7376
2017-02-08T10:27:28.595Z,7392
2017-02-08T10:28:39.253Z,7276
2017-02-08T10:29:49.545Z,7308
2017-02-08T10:31:00.212Z,7272
2017-02-08T10:32:10.480Z,7440
2017-02-08T10:33:21.141Z,7544
2017-02-08T10:34:31.808Z,7192
2017-02-08T10:35:42.469Z,7176
2017-02-08T10:36:52.737Z,6788
2017-02-08T10:38:03.402Z,6464
2017-02-08T10:39:13.679Z,6760
2017-02-08T10:40:23.947Z,7064
2017-02-08T10:41:34.614Z,7240
2017-02-08T10:42:45.278Z,7236
2017-02-08T10:43:55.970Z,7300
2017-02-08T10:45:06.643Z,7416
2017-02-08T10:46:17.309Z,7616
2017-02-08T10:47:27.982Z,7716
2017-02-08T10:48:38.248Z,7796
2017-02-08T10:49:48.910Z,7968
2017-02-08T10:50:59.574Z,8200
2017-02-08T10:52:10.243Z,8300
2017-02-08T10:53:20.509Z,8308
2017-02-08T10:54:30.778Z,8048
2017-02-08T10:55:41.440Z,7912
2017-02-08T10:56:52.107Z,7952
2017-02-08T10:58:02.800Z,7904
2017-02-08T10:59:13.475Z,8020
2017-02-08T11:00:23.742Z,7968
2017-02-08T11:01:34.016Z,8248
2017-02-08T11:02:44.677Z,7984
2017-02-08T11:03:54.947Z,7996
2017-02-08T11:05:05.614Z,8148
2017-02-08T11:06:16.281Z,8272
2017-02-08T11:07:26.543Z,8152
2017-02-08T11:08:36.812Z,8040
2017-02-08T11:09:47.082Z,7872
2017-02-08T11:10:57.353Z,7544
2017-02-08T11:12:08.031Z,7280
2017-02-08T11:13:18.298Z,7028
2017-02-08T11:14:28.959Z,7052
2017-02-08T11:15:39.645Z,7124
2017-02-08T11:16:50.308Z,7356
2017-02-08T11:18:00.574Z,7336
2017-02-08T11:19:11.236Z,7284
2017-02-08T11:20:21.908Z,7212
2017-02-08T11:21:32.574Z,7164
2017-02-08T11:22:43.238Z,7212
2017-02-08T11:23:53.508Z,7396
2017-02-08T11:25:04.171Z,7336
2017-02-08T11:26:14.471Z,7236
2017-02-08T11:27:25.135Z,7112
2017-02-08T11:28:35.400Z,7044
2017-02-08T11:29:46.063Z,7012
2017-02-08T11:30:56.335Z,7044
2017-02-08T11:32:06.621Z,7248
2017-02-08T11:33:16.891Z,7424
2017-02-08T11:34:27.157Z,7536
2017-02-08T11:35:37.824Z,7588
2017-02-08T11:36:48.491Z,7716
2017-02-08T11:37:59.158Z,7920
2017-02-08T11:39:09.824Z,8128
2017-02-08T11:40:20.490Z,8124
2017-02-08T11:41:31.154Z,7860
2017-02-08T11:42:41.024Z,7796
2017-02-08T11:43:51.700Z,7716
2017-02-08T11:45:01.567Z,7652
2017-02-08T11:46:12.231Z,7648
2017-02-08T11:47:22.898Z,7692
2017-02-08T11:48:33.817Z,7832
2017-02-08T11:49:44.297Z,7896
2017-02-08T11:50:55.302Z,7668
2017-02-08T11:52:06.329Z,7364
2017-02-08T11:53:17.349Z,7116
2017-02-08T11:54:28.381Z,7000
2017-02-08T11:55:39.406Z,6948
2017-02-08T11:56:50.151Z,6936
2017-02-08T11:58:00.818Z,7156
2017-02-08T11:59:11.482Z,7172
2017-02-08T12:00:22.145Z,6984
2017-02-08T12:01:32.817Z,6748
2017-02-08T12:02:43.480Z,6716
2017-02-08T12:03:54.144Z,6732
2017-02-08T12:05:04.420Z,6980
2017-02-08T12:06:15.085Z,7084
2017-02-08T12:07:25.751Z,7016
2017-02-08T12:08:36.420Z,6940
2017-02-08T12:09:47.083Z,6940
2017-02-08T12:10:57.748Z,6928
2017-02-08T12:12:08.416Z,6956
2017-02-08T12:13:19.094Z,7028
2017-02-08T12:14:29.760Z,7164
2017-02-08T12:15:40.428Z,7400
2017-02-08T12:16:51.091Z,7500
2017-02-08T12:18:01.762Z,7772
2017-02-08T12:19:12.430Z,8116
2017-02-08T12:20:23.096Z,8376
2017-02-08T12:21:33.760Z,7744
2017-02-08T12:22:44.444Z,7388
2017-02-08T12:23:54.324Z,7816
2017-02-08T12:25:04.989Z,7696
2017-02-08T12:26:15.256Z,6852
2017-02-08T12:27:25.911Z,6352
2017-02-08T12:28:36.179Z,6108
2017-02-08T12:29:46.848Z,5716
2017-02-08T12:30:57.508Z,5692
2017-02-08T12:32:08.178Z,5676
2017-02-08T12:33:18.447Z,5804
2017-02-08T12:34:29.107Z,5996
2017-02-08T12:35:39.770Z,6216
2017-02-08T12:36:50.452Z,6268
2017-02-08T12:38:01.115Z,6300
2017-02-08T12:39:11.831Z,6612
2017-02-08T12:40:22.492Z,6800
2017-02-08T12:41:33.157Z,6768
2017-02-08T12:42:43.822Z,6592
2017-02-08T12:43:54.088Z,6400
2017-02-08T12:45:04.760Z,6356
2017-02-08T12:46:15.427Z,6248
2017-02-08T12:47:26.091Z,6164
2017-02-08T12:48:36.760Z,6268
2017-02-08T12:49:47.036Z,6428
2017-02-08T12:50:57.702Z,6388
2017-02-08T12:52:08.368Z,6640
2017-02-08T12:53:18.646Z,7020
2017-02-08T12:54:29.314Z,7488
2017-02-08T12:55:39.980Z,8240
2017-02-08T12:56:50.646Z,9084
2017-02-08T12:58:00.912Z,9688
2017-02-08T12:59:11.571Z,10104
2017-02-08T13:00:22.255Z,9440
2017-02-08T13:01:32.921Z,9716
2017-02-08T13:02:43.588Z,10140
2017-02-08T13:03:53.857Z,9792
2017-02-08T13:05:04.530Z,8896
2017-02-08T13:06:15.189Z,8320
2017-02-08T13:07:25.854Z,7884
2017-02-08T13:08:36.124Z,7644
2017-02-08T13:09:46.788Z,7524
2017-02-08T13:10:57.456Z,7088
2017-02-08T13:12:07.724Z,6348
2017-02-08T13:13:18.009Z,5760
2017-02-08T13:14:28.667Z,5736
2017-02-08T13:15:39.332Z,5804
2017-02-08T13:16:50.002Z,5856
2017-02-08T13:18:00.673Z,6120
2017-02-08T13:19:10.948Z,5920
2017-02-08T13:20:21.221Z,5652
2017-02-08T13:21:31.887Z,5308
2017-02-08T13:22:42.549Z,5136
2017-02-08T13:23:53.213Z,5044
2017-02-08T13:25:03.884Z,5036
2017-02-08T13:26:14.557Z,5224
2017-02-08T13:27:25.317Z,5184
2017-02-08T13:28:35.982Z,4892
2017-02-08T13:29:46.643Z,5064
2017-02-08T13:30:57.309Z,5288
2017-02-08T13:32:07.583Z,5196
2017-02-08T13:33:17.851Z,5424
2017-02-08T13:34:28.119Z,5160
2017-02-08T13:35:38.786Z,4780
2017-02-08T13:36:49.447Z,4972
2017-02-08T13:38:00.111Z,5160
2017-02-08T13:39:10.782Z,4952
2017-02-08T13:40:21.097Z,4820
2017-02-08T13:41:31.761Z,4944
2017-02-08T13:42:42.433Z,5032
2017-02-08T13:43:53.105Z,4864
2017-02-08T13:45:03.769Z,4748
2017-02-08T13:46:14.434Z,4716
2017-02-08T13:47:25.104Z,4648
2017-02-08T13:48:35.765Z,4632
2017-02-08T13:49:46.434Z,4664
2017-02-08T13:50:57.109Z,4792
2017-02-08T13:52:07.375Z,4892
2017-02-08T13:53:17.644Z,5132
2017-02-08T13:54:28.309Z,5116
2017-02-08T13:55:38.981Z,4892
2017-02-08T13:56:49.651Z,4760
2017-02-08T13:58:00.320Z,4652
2017-02-08T13:59:10.590Z,4408
2017-02-08T14:00:21.252Z,4396
2017-02-08T14:01:31.916Z,4748
2017-02-08T14:02:42.610Z,4792
2017-02-08T14:03:53.286Z,4656
2017-02-08T14:05:03.158Z,4296
2017-02-08T14:06:13.825Z,3920
2017-02-08T14:07:24.490Z,3540
2017-02-08T14:08:35.159Z,3452
2017-02-08T14:09:45.828Z,3576
2017-02-08T14:10:56.494Z,3712
2017-02-08T14:12:07.168Z,3636
2017-02-08T14:13:17.439Z,3892
2017-02-08T14:14:28.109Z,3760
2017-02-08T14:15:38.770Z,3620
2017-02-08T14:16:49.445Z,3208
2017-02-08T14:18:00.105Z,2964
2017-02-08T14:19:10.770Z,2948
2017-02-08T14:20:22.287Z,2896
2017-02-08T14:21:32.953Z,2836
2017-02-08T14:22:43.627Z,2648
2017-02-08T14:23:54.291Z,2440
2017-02-08T14:25:04.956Z,2308
2017-02-08T14:26:15.331Z,2204
2017-02-08T14:27:25.995Z,2096
2017-02-08T14:28:36.262Z,1988
2017-02-08T14:29:46.927Z,1860
2017-02-08T14:30:57.594Z,1668
2017-02-08T14:34:07.884Z,1624
2017-02-08T14:37:18.232Z,1444
2017-02-08T14:41:52.414Z,1416
2017-02-08T14:43:03.080Z,1408
2017-02-08T14:44:13.344Z,1388
2017-02-08T14:45:23.624Z,1364
2017-02-08T14:46:33.886Z,1328
2017-02-08T14:47:44.553Z,1264
2017-02-08T14:48:55.210Z,1228
2017-02-08T14:50:05.479Z,1188
2017-02-08T14:51:15.746Z,1172
2017-02-08T14:52:26.413Z,1180
2017-02-08T14:53:37.078Z,1216
2017-02-08T14:54:47.749Z,1256
2017-02-08T14:55:58.408Z,1276
2017-02-08T14:57:09.071Z,1224
2017-02-08T14:58:18.937Z,1164
2017-02-08T14:59:29.601Z,1100
2017-02-08T15:00:40.271Z,1096
2017-02-08T15:01:50.941Z,1096
2017-02-08T15:03:01.602Z,1040
2017-02-08T15:04:12.265Z,972
2017-02-08T15:05:22.933Z,944
2017-02-08T15:06:33.205Z,924
2017-02-08T15:07:43.872Z,888
2017-02-08T15:08:54.535Z,828
2017-02-08T15:10:05.203Z,760
2017-02-08T15:11:15.071Z,708
2017-02-08T15:12:25.794Z,672
2017-02-08T15:13:36.457Z,640
2017-02-08T15:14:47.119Z,600
2017-02-08T15:15:57.779Z,568
2017-02-08T15:17:08.451Z,540
2017-02-08T15:18:19.118Z,500
2017-02-08T15:19:29.774Z,468
2017-02-08T15:20:40.443Z,436
2017-02-08T15:21:51.101Z,412
2017-02-08T15:23:01.761Z,392
2017-02-08T15:24:12.427Z,388
2017-02-08T15:25:23.086Z,376
2017-02-08T15:26:33.750Z,364
2017-02-08T15:27:44.416Z,356
2017-02-08T15:28:55.078Z,340
2017-02-08T15:30:05.746Z,328
2017-02-08T15:31:16.414Z,312
2017-02-08T15:32:27.078Z,288
2017-02-08T15:33:37.736Z,272
2017-02-08T15:34:48.391Z,260
2017-02-08T15:35:59.053Z,240
2017-02-08T15:37:09.716Z,228
2017-02-08T15:38:20.376Z,212
2017-02-08T15:39:31.035Z,200
2017-02-08T15:40:41.697Z,184
2017-02-08T15:41:52.362Z,176
2017-02-08T15:43:03.019Z,160
2017-02-08T15:44:13.284Z,148
2017-02-08T15:45:23.942Z,140
2017-02-08T15:46:34.611Z,128
2017-02-08T15:47:45.270Z,120
2017-02-08T15:48:55.934Z,116
2017-02-08T15:50:06.635Z,108
2017-02-08T15:51:17.302Z,100
2017-02-08T15:52:27.964Z,92
2017-02-08T15:53:38.628Z,88
2017-02-08T15:54:49.293Z,80
2017-02-08T15:55:59.956Z,72
2017-02-08T15:57:10.219Z,64
2017-02-08T15:58:20.880Z,60
2017-02-08T15:59:31.545Z,52
2017-02-08T16:00:42.210Z,44
2017-02-08T16:01:52.873Z,44
2017-02-08T16:03:03.541Z,40
2017-02-08T16:04:14.198Z,32
2017-02-08T16:05:24.462Z,28
2017-02-08T16:06:35.127Z,28
2017-02-08T16:07:45.795Z,24
2017-02-08T16:08:56.458Z,20
2017-02-08T16:10:07.164Z,20
2017-02-08T16:11:17.824Z,16
2017-02-08T16:12:28.488Z,12
2017-02-08T16:13:39.153Z,12
2017-02-08T16:14:49.819Z,12
2017-02-08T16:16:00.482Z,8
2017-02-08T16:17:11.145Z,8
2017-02-08T16:18:21.810Z,8
2017-02-08T16:19:32.467Z,4
2017-02-08T16:20:43.130Z,4
2017-02-08T16:21:53.793Z,4
2017-02-08T16:23:04.457Z,4
2017-02-08T16:24:15.129Z,4
2017-02-08T16:25:25.824Z,4
2017-02-08T16:26:36.487Z,0
2017-02-08T16:27:47.144Z,0
2017-02-08T16:28:57.809Z,4
2017-02-08T16:30:08.472Z,4
2017-02-08T16:31:19.162Z,0
2017-02-08T16:32:29.825Z,0
2017-02-08T16:33:40.487Z,0
2017-02-08T16:34:51.149Z,0